This is the latest recevied weather packets stored in our database for station/object HOTSPR-3. If no packets are shown the sender has not sent any weather packets the latest 1 day(s).
| Time | Temp. | Humidity | Pressure | Rain* | Wind** | Luminosity | Snow |
|---|---|---|---|---|---|---|---|
| 1778049313 | 20.56° C | 100% | 1004.5 hPa | 25.65 mm | 1.79 m/s, 344° | - | - |
| 1778049013 | 20.56° C | 100% | 1004.8 hPa | 25.4 mm | 1.34 m/s, 346° | - | - |
| 1778048713 | 20.56° C | 100% | 1004.9 hPa | 25.15 mm | 0.89 m/s, 0° | - | - |
| 1778048413 | 21.11° C | 100% | 1004.9 hPa | 25.15 mm | 0.89 m/s, 346° | - | - |
| 1778047512 | 21.11° C | 100% | 1005.1 hPa | 11.94 mm | 1.79 m/s, 355° | - | - |
| 1778046912 | 21.11° C | 100% | 1004.7 hPa | 5.59 mm | 0.89 m/s, 180° | - | - |
| 1778046611 | 21.11° C | 100% | 1004.8 hPa | 3.3 mm | 2.24 m/s, 342° | - | - |
| 1778005787 | 19.44° C | 100% | 1004.6 hPa | 3.3 mm | 1.34 m/s, 177° | - | - |
| 1778005487 | 19.44° C | 100% | 1004.7 hPa | 3.3 mm | 1.34 m/s, 180° | - | - |
| 1778005186 | 19.44° C | 100% | 1004.6 hPa | 3.3 mm | 0.89 m/s, 213° | - | - |
| 1778004886 | 19.44° C | 100% | 1004.7 hPa | 3.3 mm | 0.89 m/s, 180° | - | - |
| 1778004586 | 19.44° C | 100% | 1004.6 hPa | 3.3 mm | 0.45 m/s, 180° | - | - |
| 1778004286 | 19.44° C | 100% | 1004.9 hPa | 3.3 mm | 0.89 m/s, 341° | - | - |
| 1778003986 | 19.44° C | 100% | 1004.9 hPa | 3.3 mm | 0.89 m/s, 198° | - | - |
| 1778003385 | 18.89° C | 100% | 1004.8 hPa | 3.3 mm | 0.89 m/s, 180° | - | - |
| 1778002484 | 18.89° C | 100% | 1005.1 hPa | 3.3 mm | 1.34 m/s, 183° | - | - |
| 1778002184 | 18.89° C | 100% | 1005.1 hPa | 3.3 mm | 0.89 m/s, 180° | - | - |
| 1778001884 | 18.89° C | 100% | 1005 hPa | 3.3 mm | 0.89 m/s, 182° | - | - |
| 1778001284 | 18.89° C | 100% | 1005 hPa | 3.3 mm | 1.34 m/s, 180° | - | - |
| 1778000984 | 18.89° C | 100% | 1005.1 hPa | 3.3 mm | 1.34 m/s, 191° | - | - |
| 1778000383 | 18.89° C | 100% | 1005.3 hPa | 3.3 mm | 1.34 m/s, 180° | - | - |
| 1778000083 | 18.89° C | 100% | 1005.2 hPa | 3.3 mm | 0.89 m/s, 182° | - | - |
| 1777999483 | 18.89° C | 100% | 1005.4 hPa | 3.3 mm | 0.89 m/s, 180° | - | - |
| 1777998582 | 18.89° C | 100% | 1005.3 hPa | 3.05 mm | 0.45 m/s, 180° | - | - |
| 1777994379 | 18.89° C | 100% | 1005.4 hPa | 2.03 mm | 0.89 m/s, 337° | - | - |
* Rain since midnight (hover to see other rain measurements)
** Current wind speed in m/s (hover to see current wind gust speed)